Time;durP1;ratioP1;P1;durP2;ratioP2;P2;SDS_P1;SDS_P2;PMS_P1;PMS_P2;Temp;Humidity;BMP_temperature;BMP_pressure;BME280_temperature;BME280_humidity;BME280_pressure;Samples;Min_cycle;Max_cycle;Signal;HPM_P1;HPM_P2
2021/10/28 00:14:11;;;;;;;23.98;20.15;;;25.00;94.60;;;;;;1904104;73;21186;-79
2021/10/28 00:16:44;;;;;;;23.10;19.87;;;25.00;94.90;;;;;;1898961;72;21209;-78
2021/10/28 00:19:15;;;;;;;25.57;20.77;;;24.90;95.10;;;;;;1926665;72;21606;-78
2021/10/28 00:21:49;;;;;;;27.32;21.05;;;24.80;95.50;;;;;;1901852;74;21667;-78
2021/10/28 00:24:20;;;;;;;25.10;20.52;;;24.70;95.90;;;;;;1903525;73;21886;-79
2021/10/28 00:26:53;;;;;;;23.27;20.17;;;24.60;96.20;;;;;;1900227;73;21151;-80
2021/10/28 00:29:26;;;;;;;24.18;18.92;;;24.60;96.00;;;;;;1914682;73;21155;-80
2021/10/28 00:31:58;;;;;;;23.65;20.72;;;24.60;96.20;;;;;;1904245;72;21768;-78
2021/10/28 00:34:30;;;;;;;25.95;20.37;;;24.60;96.20;;;;;;1881783;74;21069;-80
2021/10/28 00:37:02;;;;;;;26.02;20.57;;;24.60;96.00;;;;;;1896630;73;21147;-78
2021/10/28 00:39:32;;;;;;;26.40;21.57;;;24.70;96.20;;;;;;1916450;73;21120;-78
2021/10/28 00:42:04;;;;;;;25.00;21.65;;;24.70;96.00;;;;;;1887618;74;21584;-80
2021/10/28 00:44:35;;;;;;;26.77;22.95;;;24.60;96.10;;;;;;1902681;73;21146;-79
2021/10/28 00:47:06;;;;;;;26.07;22.73;;;24.60;96.30;;;;;;1914807;73;21731;-79
2021/10/28 00:49:37;;;;;;;25.23;22.30;;;24.50;96.60;;;;;;1888933;73;21207;-78
2021/10/28 00:52:08;;;;;;;29.52;22.50;;;24.60;97.10;;;;;;1888041;73;21242;-78
2021/10/28 00:54:39;;;;;;;26.93;23.27;;;24.50;96.80;;;;;;1902788;73;21187;-79
2021/10/28 00:57:11;;;;;;;28.55;23.32;;;24.50;96.80;;;;;;1905606;73;21629;-79
2021/10/28 00:59:42;;;;;;;31.57;24.05;;;24.60;96.30;;;;;;1907125;73;21146;-83
2021/10/28 01:02:14;;;;;;;25.32;21.30;;;24.60;96.00;;;;;;1904072;73;21454;-75
2021/10/28 01:04:45;;;;;;;30.52;23.45;;;24.60;95.70;;;;;;1909087;73;21154;-74
2021/10/28 01:07:16;;;;;;;31.05;22.30;;;24.70;95.40;;;;;;1922888;72;21151;-76
2021/10/28 01:09:47;;;;;;;28.52;23.22;;;24.70;95.70;;;;;;1874088;74;21138;-77
2021/10/28 01:12:18;;;;;;;28.45;23.67;;;24.80;95.50;;;;;;1890880;73;21231;-75
2021/10/28 01:14:49;;;;;;;28.12;23.80;;;24.80;95.40;;;;;;1896276;73;21246;-76
2021/10/28 01:17:20;;;;;;;30.57;23.90;;;24.90;95.40;;;;;;1898895;73;21142;-75
2021/10/28 01:19:52;;;;;;;29.45;24.72;;;24.90;95.10;;;;;;1904466;74;21218;-75
2021/10/28 01:22:23;;;;;;;32.25;25.43;;;25.00;95.00;;;;;;1894125;73;21104;-76
2021/10/28 01:24:54;;;;;;;31.45;25.80;;;25.00;95.00;;;;;;1872532;74;21149;-75
2021/10/28 01:27:33;;;;;;;31.77;24.67;;;25.00;94.90;;;;;;1868393;74;21229;-75
2021/10/28 01:30:07;;;;;;;36.33;27.62;;;25.00;95.10;;;;;;1863516;74;21618;-74
2021/10/28 01:32:38;;;;;;;35.58;27.02;;;25.10;95.20;;;;;;1869421;73;21728;-74
2021/10/28 01:35:10;;;;;;;32.28;24.18;;;25.10;95.20;;;;;;1842001;76;21193;-75
2021/10/28 01:37:43;;;;;;;29.90;24.32;;;25.20;94.90;;;;;;1862954;74;21223;-76
2021/10/28 01:40:15;;;;;;;28.12;24.60;;;25.20;94.70;;;;;;1875895;73;21711;-75
2021/10/28 01:42:49;;;;;;;33.23;25.40;;;25.30;95.00;;;;;;1860264;74;21654;-74
2021/10/28 01:45:23;;;;;;;33.42;26.00;;;25.40;94.90;;;;;;1881864;73;21166;-75
2021/10/28 01:47:54;;;;;;;30.82;25.12;;;25.40;94.70;;;;;;1867292;74;21191;-74
2021/10/28 01:50:28;;;;;;;33.53;27.02;;;25.40;94.70;;;;;;1900999;73;21863;-75
2021/10/28 01:52:59;;;;;;;31.10;25.00;;;25.50;94.60;;;;;;1908622;73;21172;-75
2021/10/28 01:55:30;;;;;;;34.67;24.27;;;25.50;94.40;;;;;;1897790;74;21161;-75
2021/10/28 01:58:04;;;;;;;29.05;24.07;;;25.50;94.60;;;;;;1897911;74;21291;-73
2021/10/28 02:00:36;;;;;;;31.10;24.27;;;25.60;94.40;;;;;;1872847;73;21180;-74
2021/10/28 02:03:09;;;;;;;27.42;22.48;;;25.60;94.60;;;;;;1896985;73;21634;-75
2021/10/28 02:05:44;;;;;;;29.05;23.12;;;25.60;94.60;;;;;;1917382;72;21672;-75
2021/10/28 02:08:15;;;;;;;26.82;23.83;;;25.70;94.40;;;;;;1905883;73;21136;-75
2021/10/28 02:10:46;;;;;;;29.27;23.42;;;25.80;94.40;;;;;;1909152;73;21228;-75
2021/10/28 02:13:17;;;;;;;30.70;22.75;;;25.90;94.40;;;;;;1887043;73;21604;-77
2021/10/28 02:15:49;;;;;;;27.93;23.62;;;25.90;94.00;;;;;;1901206;73;21081;-76
2021/10/28 02:18:21;;;;;;;27.27;22.40;;;26.00;94.00;;;;;;1903367;73;21121;-75
2021/10/28 02:20:54;;;;;;;25.25;21.57;;;26.20;93.70;;;;;;1924848;72;21135;-74
2021/10/28 02:23:25;;;;;;;24.23;20.68;;;26.20;93.30;;;;;;1914318;72;21144;-75
2021/10/28 02:25:56;;;;;;;24.63;20.65;;;26.20;93.20;;;;;;1915442;72;21106;-73
2021/10/28 02:28:27;;;;;;;28.12;21.45;;;26.30;92.70;;;;;;1897391;73;21218;-74
2021/10/28 02:30:58;;;;;;;25.72;19.60;;;26.30;92.70;;;;;;1879772;73;21754;-73
2021/10/28 02:33:29;;;;;;;23.70;19.55;;;26.40;92.70;;;;;;1910058;73;21742;-72
2021/10/28 02:36:00;;;;;;;22.15;18.75;;;26.50;92.10;;;;;;1938143;72;21683;-73
2021/10/28 02:38:31;;;;;;;22.55;19.57;;;26.60;92.10;;;;;;1883726;74;22407;-73
2021/10/28 02:41:03;;;;;;;21.27;18.85;;;26.60;92.00;;;;;;1907197;73;21196;-73
2021/10/28 02:43:34;;;;;;;23.77;18.87;;;26.70;91.50;;;;;;1918221;73;22072;-72
2021/10/28 02:46:06;;;;;;;23.57;18.35;;;26.70;91.40;;;;;;1851351;75;22163;-72
2021/10/28 02:48:37;;;;;;;22.22;17.85;;;26.70;91.40;;;;;;1861117;75;21733;-72
2021/10/28 02:51:08;;;;;;;20.25;18.05;;;26.70;91.20;;;;;;1886710;74;21113;-72
2021/10/28 02:53:39;;;;;;;20.40;18.27;;;26.70;91.20;;;;;;1838332;76;21184;-73
2021/10/28 02:56:10;;;;;;;23.02;19.42;;;26.70;91.40;;;;;;1866142;74;21153;-73
2021/10/28 02:58:41;;;;;;;21.25;17.98;;;26.70;91.50;;;;;;1881892;74;21079;-74
2021/10/28 03:01:11;;;;;;;20.68;18.48;;;26.70;91.40;;;;;;1885921;73;21681;-73
2021/10/28 03:03:43;;;;;;;20.90;18.60;;;26.70;91.50;;;;;;1879301;74;21184;-73
2021/10/28 03:06:13;;;;;;;25.17;18.70;;;26.60;91.60;;;;;;1888600;74;21694;-73
2021/10/28 03:08:47;;;;;;;23.38;18.82;;;26.60;91.80;;;;;;1888412;73;21231;-73
2021/10/28 03:11:17;;;;;;;23.73;18.32;;;26.60;92.30;;;;;;1854547;75;21155;-74
2021/10/28 03:13:49;;;;;;;26.62;20.55;;;26.50;92.50;;;;;;1855596;74;21156;-72
2021/10/28 03:17:17;;;;;;;25.02;19.90;;;26.50;93.00;;;;;;1864851;74;21312;-72
2021/10/28 03:26:29;;;;;;;24.47;20.37;;;26.20;93.70;;;;;;1926424;72;21145;-72
2021/10/28 03:29:00;;;;;;;23.62;19.40;;;26.20;94.30;;;;;;1894753;74;21225;-72
2021/10/28 03:31:30;;;;;;;23.98;20.27;;;26.20;94.50;;;;;;1908050;73;21122;-73
2021/10/28 03:34:03;;;;;;;23.25;18.90;;;26.20;94.60;;;;;;1885546;73;21428;-72
2021/10/28 03:59:46;;;;;;;22.35;17.35;;;26.30;94.10;;;;;;1906435;73;21083;-74
2021/10/28 04:29:51;;;;;;;18.75;16.27;;;27.20;92.40;;;;;;1859279;74;21474;-74
2021/10/28 04:32:22;;;;;;;18.27;15.35;;;27.40;92.50;;;;;;1856780;75;21696;-74
2021/10/28 04:34:53;;;;;;;20.88;15.63;;;27.60;92.00;;;;;;1869067;74;21128;-74
2021/10/28 04:37:24;;;;;;;17.85;14.65;;;27.70;92.00;;;;;;1896759;73;21156;-74
2021/10/28 04:39:55;;;;;;;17.75;15.32;;;27.80;91.10;;;;;;1862802;74;21140;-73
2021/10/28 04:42:26;;;;;;;19.02;14.70;;;27.80;90.80;;;;;;1863753;75;21204;-73
2021/10/28 04:44:57;;;;;;;16.20;14.50;;;27.90;90.80;;;;;;1876012;74;21123;-73
2021/10/28 04:47:28;;;;;;;18.35;14.53;;;28.00;90.80;;;;;;1855425;75;21205;-75
2021/10/28 04:49:58;;;;;;;16.97;14.87;;;28.10;90.80;;;;;;1857557;75;21221;-74
2021/10/28 04:52:29;;;;;;;15.65;14.00;;;28.10;90.70;;;;;;1903799;73;21190;-75
2021/10/28 04:55:00;;;;;;;20.40;15.18;;;28.10;90.30;;;;;;1887143;74;21169;-74
2021/10/28 04:57:30;;;;;;;15.95;14.28;;;28.00;90.40;;;;;;1907593;73;21603;-75
2021/10/28 05:00:04;;;;;;;16.15;13.88;;;27.90;90.60;;;;;;1892428;73;21616;-75
2021/10/28 05:02:34;;;;;;;16.00;13.60;;;27.90;90.60;;;;;;1915846;72;21172;-74
2021/10/28 05:05:06;;;;;;;16.90;14.45;;;27.80;90.50;;;;;;1931729;72;21194;-74
2021/10/28 05:07:36;;;;;;;15.35;13.75;;;27.70;90.70;;;;;;1908061;73;21080;-74
2021/10/28 05:10:07;;;;;;;17.85;14.55;;;27.70;90.80;;;;;;1901974;73;21105;-76
2021/10/28 05:12:38;;;;;;;14.28;12.78;;;27.60;90.80;;;;;;1885215;74;21187;-78
2021/10/28 05:15:09;;;;;;;16.52;14.00;;;27.60;91.20;;;;;;1904487;73;21082;-74
2021/10/28 05:17:40;;;;;;;18.25;14.58;;;27.60;92.10;;;;;;1907143;73;21154;-74
2021/10/28 05:20:11;;;;;;;17.02;15.13;;;27.50;92.50;;;;;;1907312;73;21421;-75
2021/10/28 05:22:42;;;;;;;17.52;14.95;;;27.40;93.10;;;;;;1929482;72;21042;-75
2021/10/28 05:28:50;;;;;;;20.02;15.23;;;27.10;94.00;;;;;;1935860;73;22103;-75
2021/10/28 05:31:22;;;;;;;18.17;16.17;;;26.90;94.50;;;;;;1885216;75;21107;-74
2021/10/28 05:33:53;;;;;;;17.17;15.10;;;26.80;94.70;;;;;;1920686;74;21107;-74
2021/10/28 05:36:24;;;;;;;22.98;16.50;;;26.70;95.00;;;;;;1901006;75;21647;-73
2021/10/28 05:38:55;;;;;;;19.87;17.12;;;26.70;95.40;;;;;;1890179;75;21548;-74
2021/10/28 05:41:27;;;;;;;18.75;15.28;;;26.70;95.90;;;;;;1894517;75;21146;-75
2021/10/28 05:43:58;;;;;;;20.02;17.00;;;26.60;95.90;;;;;;1890742;75;21170;-75
2021/10/28 05:46:29;;;;;;;17.12;13.65;;;26.60;95.90;;;;;;1896979;75;21141;-75
2021/10/28 05:49:00;;;;;;;16.00;13.83;;;26.50;96.30;;;;;;1890402;75;21131;-75
2021/10/28 05:51:36;;;;;;;16.50;13.40;;;26.50;96.40;;;;;;1890967;75;21685;-75
2021/10/28 05:54:10;;;;;;;17.15;14.80;;;26.30;96.60;;;;;;1898617;75;21139;-75
2021/10/28 05:56:44;;;;;;;16.70;14.13;;;26.30;96.90;;;;;;1895860;75;21228;-77
2021/10/28 05:59:18;;;;;;;15.40;13.78;;;26.30;97.00;;;;;;1900950;75;21198;-75
2021/10/28 06:01:52;;;;;;;15.65;13.90;;;26.20;96.70;;;;;;1890826;75;21146;-76
2021/10/28 06:04:32;;;;;;;18.77;14.50;;;26.20;96.80;;;;;;1896692;75;21625;-76
2021/10/28 06:07:06;;;;;;;14.53;13.03;;;26.20;97.10;;;;;;1888637;75;21178;-77
2021/10/28 06:09:40;;;;;;;15.08;12.82;;;26.20;96.80;;;;;;1886545;75;21134;-77
2021/10/28 06:12:16;;;;;;;13.45;11.55;;;26.30;97.00;;;;;;1896170;75;21111;-77
2021/10/28 06:14:48;;;;;;;13.68;11.73;;;26.40;96.80;;;;;;1894195;75;21164;-77
2021/10/28 06:17:20;;;;;;;14.10;11.78;;;26.60;96.70;;;;;;1900677;75;21143;-77
2021/10/28 06:19:52;;;;;;;13.43;11.33;;;26.70;96.30;;;;;;1902638;75;21933;-75
2021/10/28 06:22:24;;;;;;;13.68;11.88;;;26.80;96.00;;;;;;1893146;75;21716;-77
2021/10/28 06:24:57;;;;;;;12.45;11.12;;;26.90;95.90;;;;;;1898368;75;21037;-76
2021/10/28 06:27:28;;;;;;;12.73;11.43;;;27.00;95.70;;;;;;1902426;74;21265;-76
2021/10/28 06:30:00;;;;;;;13.68;11.70;;;27.00;95.60;;;;;;1873299;75;21217;-77
2021/10/28 06:32:31;;;;;;;12.93;11.45;;;27.00;95.40;;;;;;1881293;75;21544;-76
2021/10/28 06:35:04;;;;;;;11.95;10.68;;;27.10;95.20;;;;;;1880724;75;21233;-77
2021/10/28 06:37:34;;;;;;;13.18;10.70;;;27.10;94.90;;;;;;1874458;75;21129;-77
2021/10/28 06:40:06;;;;;;;13.70;10.90;;;27.10;95.00;;;;;;1879205;75;21081;-77
2021/10/28 06:42:37;;;;;;;13.70;11.18;;;27.10;94.70;;;;;;1886501;75;21188;-77
2021/10/28 06:45:10;;;;;;;12.88;11.48;;;27.10;94.60;;;;;;1882600;75;21239;-76
2021/10/28 06:47:41;;;;;;;14.50;11.73;;;27.10;94.70;;;;;;1872748;75;21214;-77
2021/10/28 06:50:14;;;;;;;12.50;10.88;;;27.10;94.80;;;;;;1885725;75;21152;-77
2021/10/28 07:02:55;;;;;;;12.33;10.88;;;27.00;95.30;;;;;;1883801;75;21084;-76
2021/10/28 07:05:26;;;;;;;12.80;10.65;;;26.90;95.30;;;;;;1882272;75;21156;-75
2021/10/28 07:07:57;;;;;;;14.60;10.65;;;26.90;95.20;;;;;;1894698;75;21978;-78
2021/10/28 07:10:29;;;;;;;12.35;10.03;;;26.90;95.10;;;;;;1887210;75;21705;-78
2021/10/28 07:20:53;;;;;;;12.65;11.35;;;26.80;95.20;;;;;;1885659;74;21176;-77
2021/10/28 07:33:55;;;;;;;13.15;10.93;;;26.70;95.60;;;;;;1883224;75;21152;-73
2021/10/28 07:35:55;;;;;;;14.15;12.35;;;26.60;95.80;;;;;;1868703;77;21089;-73
2021/10/28 07:58:48;;;;;;;16.32;13.88;;;26.10;97.90;;;;;;1814685;78;21154;-73
2021/10/28 08:13:28;;;;;;;17.05;14.53;;;26.00;98.70;;;;;;1885296;75;21208;-73
2021/10/28 08:21:40;;;;;;;21.55;17.25;;;26.20;99.00;;;;;;1884072;74;21136;-74
2021/10/28 08:24:12;;;;;;;18.35;15.78;;;26.20;99.00;;;;;;1888083;75;21097;-74
2021/10/28 08:29:21;;;;;;;21.87;16.60;;;26.30;98.90;;;;;;1899786;74;21678;-74
2021/10/28 08:31:40;;;;;;;19.25;15.85;;;26.40;98.90;;;;;;1906187;74;21151;-74
2021/10/28 08:34:11;;;;;;;22.77;16.42;;;26.40;98.80;;;;;;1905922;74;21151;-75
2021/10/28 08:36:49;;;;;;;20.55;17.48;;;26.50;98.60;;;;;;1897125;74;21203;-75
2021/10/28 08:39:14;;;;;;;21.30;16.27;;;26.50;98.70;;;;;;1899012;74;21163;-76
2021/10/28 08:41:47;;;;;;;19.85;16.52;;;26.50;98.50;;;;;;1903621;74;21606;-74
2021/10/28 08:44:21;;;;;;;20.12;16.82;;;26.60;98.40;;;;;;1897019;74;21217;-75
2021/10/28 08:46:54;;;;;;;20.45;15.90;;;26.60;98.10;;;;;;1915527;74;21595;-73
2021/10/28 08:49:32;;;;;;;19.40;16.73;;;26.60;98.10;;;;;;1909465;74;21152;-74
2021/10/28 08:52:11;;;;;;;19.02;15.58;;;26.60;98.00;;;;;;1909871;74;21637;-74
2021/10/28 08:59:55;;;;;;;18.60;16.67;;;26.50;98.40;;;;;;1909577;74;21125;-75
2021/10/28 09:25:12;;;;;;;20.50;16.70;;;26.50;99.00;;;;;;1913614;74;21564;-74
2021/10/28 09:28:00;;;;;;;16.30;14.60;;;26.50;99.10;;;;;;1910331;74;21115;-74
2021/10/28 09:33:06;;;;;;;17.95;15.28;;;26.50;99.00;;;;;;1891281;74;21182;-74
2021/10/28 09:46:14;;;;;;;18.15;15.00;;;26.40;98.60;;;;;;1901468;74;22422;-75
2021/10/28 09:48:35;;;;;;;17.30;13.53;;;26.50;98.70;;;;;;1892929;74;21066;-75
2021/10/28 09:51:05;;;;;;;18.20;15.15;;;26.40;98.60;;;;;;1900344;74;21145;-75
2021/10/28 09:53:47;;;;;;;19.57;15.43;;;26.40;98.60;;;;;;1898884;74;21163;-76
2021/10/28 09:58:42;;;;;;;17.80;15.38;;;26.40;98.90;;;;;;1860605;75;21219;-75
2021/10/28 10:01:16;;;;;;;18.23;14.95;;;26.40;99.10;;;;;;1899894;74;21103;-76
2021/10/28 10:03:48;;;;;;;17.75;14.60;;;26.40;98.80;;;;;;1879474;74;21434;-74
2021/10/28 10:06:26;;;;;;;16.52;14.68;;;26.40;98.60;;;;;;1888400;74;21116;-73
2021/10/28 10:08:52;;;;;;;21.52;16.23;;;26.40;98.60;;;;;;1888432;74;21161;-75
2021/10/28 10:11:27;;;;;;;18.30;15.48;;;26.40;98.40;;;;;;1896449;75;21665;-74
2021/10/28 10:13:56;;;;;;;24.90;17.27;;;26.40;98.50;;;;;;1895077;74;21415;-73
2021/10/28 10:16:28;;;;;;;22.77;14.87;;;26.50;98.70;;;;;;1887549;75;22065;-73
2021/10/28 10:18:59;;;;;;;17.70;15.38;;;26.40;98.10;;;;;;1895795;74;21602;-73
2021/10/28 10:21:37;;;;;;;22.70;15.50;;;26.40;98.40;;;;;;1900961;74;21173;-73
2021/10/28 10:24:14;;;;;;;19.60;16.20;;;26.40;98.70;;;;;;1896694;74;21133;-73
2021/10/28 10:26:59;;;;;;;20.37;17.05;;;26.40;98.70;;;;;;1894717;74;21614;-73
2021/10/28 11:26:03;;;;;;;18.00;12.45;;;25.60;99.90;;;;;;1924573;72;21692;-73
2021/10/28 12:01:52;;;;;;;4.97;2.22;;;25.00;99.90;;;;;;1927913;73;21158;-75
2021/10/28 12:24:34;;;;;;;3.92;1.80;;;25.00;99.90;;;;;;1926632;73;21681;-75
2021/10/28 12:44:57;;;;;;;4.10;1.92;;;25.00;99.90;;;;;;1901016;73;21619;-79
2021/10/28 13:51:37;;;;;;;6.40;1.70;;;25.00;99.90;;;;;;1903158;73;21131;-80
2021/10/28 15:35:54;;;;;;;2.95;1.10;;;24.70;99.90;;;;;;1923903;73;21586;-80
2021/10/28 16:21:45;;;;;;;3.65;1.67;;;24.70;99.90;;;;;;1927326;73;21187;-80
2021/10/28 16:23:54;;;;;;;2.75;1.30;;;24.60;99.90;;;;;;1919645;73;21166;-80
2021/10/28 16:26:31;;;;;;;3.60;1.72;;;24.60;99.90;;;;;;1924711;73;21627;-78
2021/10/28 16:28:57;;;;;;;3.22;1.40;;;24.60;99.90;;;;;;1922009;73;21727;-79
2021/10/28 16:31:28;;;;;;;3.05;1.50;;;24.60;99.90;;;;;;1927851;73;21105;-80
2021/10/28 16:33:59;;;;;;;2.42;1.17;;;24.60;99.90;;;;;;1929812;73;21182;-80
2021/10/28 16:36:30;;;;;;;2.12;1.30;;;24.60;99.90;;;;;;1923364;72;21253;-79
2021/10/28 16:39:05;;;;;;;3.33;1.30;;;24.60;99.90;;;;;;1922508;73;21155;-79
2021/10/28 16:41:33;;;;;;;3.87;1.60;;;24.60;99.90;;;;;;1923962;73;21068;-80
2021/10/28 16:44:05;;;;;;;3.37;1.70;;;24.60;99.90;;;;;;1872981;75;21057;-80
2021/10/28 16:46:37;;;;;;;4.17;1.90;;;24.60;99.90;;;;;;1851136;76;21430;-81
2021/10/28 16:49:10;;;;;;;3.20;1.62;;;24.70;99.90;;;;;;1848557;76;21202;-80
2021/10/28 16:51:42;;;;;;;2.47;1.40;;;24.60;99.90;;;;;;1842789;76;21185;-80
2021/10/28 16:54:17;;;;;;;2.00;1.20;;;24.60;99.90;;;;;;1911015;73;21189;-80
2021/10/28 16:56:48;;;;;;;5.55;1.80;;;24.60;99.90;;;;;;1909227;73;21132;-80
2021/10/28 16:59:20;;;;;;;4.45;1.52;;;24.60;99.90;;;;;;1919295;73;21171;-81
2021/10/28 17:01:51;;;;;;;4.20;1.85;;;24.60;99.90;;;;;;1920950;73;21155;-80
2021/10/28 17:04:22;;;;;;;3.58;1.37;;;24.60;99.90;;;;;;1918263;73;21168;-79
2021/10/28 17:06:53;;;;;;;2.15;1.17;;;24.60;99.90;;;;;;1844990;76;21118;-79
2021/10/28 17:09:24;;;;;;;4.15;1.80;;;24.60;99.90;;;;;;1909280;73;21185;-81
2021/10/28 17:11:55;;;;;;;3.42;1.85;;;24.60;99.90;;;;;;1918930;74;21163;-79
2021/10/28 17:14:26;;;;;;;4.12;1.57;;;24.60;99.90;;;;;;1918292;73;21099;-79
2021/10/28 17:16:57;;;;;;;2.85;1.45;;;24.60;99.90;;;;;;1920648;73;21153;-78
2021/10/28 17:19:28;;;;;;;3.75;1.50;;;24.60;99.90;;;;;;1908046;73;22115;-78
2021/10/28 17:22:00;;;;;;;3.95;1.90;;;24.60;99.90;;;;;;1915889;73;21631;-79
2021/10/28 17:27:02;;;;;;;4.80;1.60;;;24.60;99.90;;;;;;1918841;73;21190;-80
2021/10/28 17:29:34;;;;;;;3.47;1.50;;;24.60;99.90;;;;;;1872909;75;21669;-79
2021/10/28 17:32:05;;;;;;;4.67;1.67;;;24.60;99.90;;;;;;1909605;73;21107;-79
2021/10/28 17:34:36;;;;;;;5.03;1.85;;;24.60;99.90;;;;;;1919579;73;21537;-79
2021/10/28 17:37:07;;;;;;;5.70;2.10;;;24.60;99.90;;;;;;1920860;73;21229;-79
2021/10/28 17:39:38;;;;;;;6.42;2.33;;;24.60;99.90;;;;;;1917718;73;21581;-79
2021/10/28 17:42:10;;;;;;;5.35;1.98;;;24.60;99.90;;;;;;1919702;73;21069;-79
2021/10/28 17:44:49;;;;;;;5.17;2.20;;;24.60;99.90;;;;;;1919020;73;21489;-79
2021/10/28 17:47:15;;;;;;;5.83;2.60;;;24.60;99.90;;;;;;1869881;75;21204;-79
2021/10/28 17:49:46;;;;;;;4.85;2.30;;;24.60;99.90;;;;;;1910972;75;21139;-79
2021/10/28 17:52:19;;;;;;;5.10;2.33;;;24.60;99.90;;;;;;1915641;73;21204;-79
2021/10/28 17:54:50;;;;;;;4.78;2.20;;;24.60;99.90;;;;;;1869670;75;21575;-79
2021/10/28 17:57:21;;;;;;;9.48;2.45;;;24.60;99.90;;;;;;1911796;75;21131;-79
2021/10/28 17:59:52;;;;;;;6.33;2.10;;;24.60;99.90;;;;;;1920656;74;21190;-79
2021/10/28 18:02:23;;;;;;;5.35;2.10;;;24.60;99.90;;;;;;1916191;73;21134;-78
2021/10/28 18:04:54;;;;;;;7.35;2.52;;;24.60;99.90;;;;;;1844664;76;21056;-78
2021/10/28 18:07:25;;;;;;;4.17;1.95;;;24.60;99.90;;;;;;1910416;74;21138;-79
2021/10/28 18:09:58;;;;;;;4.62;1.90;;;24.60;99.90;;;;;;1920507;73;21274;-78
2021/10/28 18:12:29;;;;;;;3.83;1.77;;;24.60;99.90;;;;;;1872671;75;21579;-79
2021/10/28 18:15:00;;;;;;;3.72;1.98;;;24.60;99.90;;;;;;1846530;76;21138;-79
2021/10/28 18:17:32;;;;;;;3.60;1.70;;;24.60;99.90;;;;;;1881861;75;21171;-80
2021/10/28 18:20:05;;;;;;;3.80;1.55;;;24.60;99.90;;;;;;1881782;75;21078;-79
2021/10/28 18:22:39;;;;;;;4.83;2.10;;;24.60;99.90;;;;;;1861540;76;21209;-80
2021/10/28 18:25:11;;;;;;;3.20;1.60;;;24.50;99.90;;;;;;1906493;75;21081;-79
2021/10/28 18:27:42;;;;;;;5.37;1.98;;;24.50;99.90;;;;;;1907214;74;21066;-80
2021/10/28 18:30:16;;;;;;;4.15;2.02;;;24.50;99.90;;;;;;1910088;74;21193;-80
2021/10/28 18:32:48;;;;;;;6.47;2.10;;;24.50;99.90;;;;;;1899825;75;21590;-80
2021/10/28 18:35:19;;;;;;;4.60;1.60;;;24.50;99.90;;;;;;1912873;74;21153;-80
2021/10/28 18:37:50;;;;;;;6.10;1.70;;;24.50;99.90;;;;;;1885869;75;21208;-79
2021/10/28 18:40:21;;;;;;;4.22;1.70;;;24.50;99.90;;;;;;1916738;74;21044;-80
2021/10/28 18:42:52;;;;;;;4.60;2.05;;;24.40;99.90;;;;;;1911364;75;21610;-79
2021/10/28 18:45:23;;;;;;;3.62;1.77;;;24.40;99.90;;;;;;1890089;75;21095;-79
2021/10/28 18:47:54;;;;;;;3.95;1.62;;;24.50;99.90;;;;;;1878678;76;21127;-79
2021/10/28 18:50:25;;;;;;;4.67;1.80;;;24.40;99.90;;;;;;1878580;76;21128;-80
2021/10/28 18:52:56;;;;;;;3.42;1.60;;;24.40;99.90;;;;;;1878459;76;21119;-79
2021/10/28 18:55:28;;;;;;;2.98;1.52;;;24.40;99.90;;;;;;1900825;75;21114;-79
2021/10/28 18:57:58;;;;;;;4.08;1.80;;;24.40;99.90;;;;;;1876865;75;21163;-79
2021/10/28 19:00:29;;;;;;;4.10;1.40;;;24.40;99.90;;;;;;1923801;74;21526;-79
2021/10/28 19:03:01;;;;;;;8.85;2.08;;;24.40;99.90;;;;;;1911345;75;21574;-79
2021/10/28 19:05:31;;;;;;;4.50;1.82;;;24.40;99.90;;;;;;1885076;75;21225;-79
2021/10/28 19:08:03;;;;;;;5.37;2.12;;;24.40;99.90;;;;;;1878870;76;21634;-79
2021/10/28 19:10:33;;;;;;;3.47;2.33;;;24.40;99.90;;;;;;1878855;76;21147;-79
2021/10/28 19:13:04;;;;;;;3.50;1.62;;;24.40;99.90;;;;;;1878961;75;21087;-79
2021/10/28 19:15:35;;;;;;;5.37;1.85;;;24.40;99.90;;;;;;1906979;75;21057;-79
2021/10/28 19:18:06;;;;;;;4.30;1.98;;;24.40;99.90;;;;;;1899596;75;21623;-79
2021/10/28 19:20:38;;;;;;;5.78;1.87;;;24.40;99.90;;;;;;1899672;75;21528;-79
2021/10/28 19:23:09;;;;;;;6.90;1.60;;;24.40;99.90;;;;;;1899627;75;22289;-79
2021/10/28 19:25:41;;;;;;;4.53;1.57;;;24.40;99.90;;;;;;1905074;75;21590;-80
2021/10/28 19:28:12;;;;;;;4.30;1.62;;;24.40;99.90;;;;;;1910661;75;21120;-79
2021/10/28 19:33:20;;;;;;;5.12;1.70;;;24.40;99.90;;;;;;1909600;74;21147;-80
2021/10/28 19:35:53;;;;;;;3.58;1.72;;;24.40;99.90;;;;;;1891915;75;21665;-79
2021/10/28 19:48:32;;;;;;;5.12;1.47;;;24.30;99.90;;;;;;1921061;74;21564;-79
2021/10/28 19:51:03;;;;;;;4.42;1.37;;;24.30;99.90;;;;;;1942286;74;21119;-78
2021/10/28 19:53:34;;;;;;;5.08;1.65;;;24.30;99.90;;;;;;1933898;74;21210;-79
2021/10/28 19:56:11;;;;;;;4.83;1.65;;;24.40;99.90;;;;;;1921189;74;21072;-79
2021/10/28 19:58:42;;;;;;;3.45;1.75;;;24.40;99.90;;;;;;1932550;73;22111;-79
2021/10/28 20:21:30;;;;;;;3.50;1.40;;;24.40;99.90;;;;;;1930706;74;21209;-80
2021/10/28 20:24:01;;;;;;;3.35;1.40;;;24.40;99.90;;;;;;1915075;74;21544;-79
2021/10/28 20:26:32;;;;;;;4.62;1.60;;;24.40;99.90;;;;;;1925931;74;21498;-79
2021/10/28 20:29:06;;;;;;;3.47;1.30;;;24.40;99.90;;;;;;1900689;75;21549;-79
2021/10/28 20:31:36;;;;;;;3.27;1.47;;;24.40;99.90;;;;;;1895097;76;21165;-79
2021/10/28 20:39:10;;;;;;;7.37;1.80;;;24.40;99.90;;;;;;1930686;74;21230;-79
2021/10/28 20:41:41;;;;;;;6.12;1.72;;;24.40;99.90;;;;;;1871133;76;21080;-79
2021/10/28 20:44:12;;;;;;;2.25;1.60;;;24.40;99.90;;;;;;1877601;76;21151;-79
2021/10/28 20:46:43;;;;;;;3.40;1.60;;;24.40;99.90;;;;;;1923744;74;21606;-79
2021/10/28 20:49:14;;;;;;;3.65;1.47;;;24.40;99.90;;;;;;1895944;75;21715;-79
2021/10/28 20:51:46;;;;;;;3.85;1.32;;;24.30;99.90;;;;;;1898520;74;21580;-79
2021/10/28 20:54:16;;;;;;;4.72;1.60;;;24.40;99.90;;;;;;1911717;74;21663;-79
2021/10/28 20:56:48;;;;;;;4.80;1.52;;;24.40;99.90;;;;;;1934226;74;21612;-79
2021/10/28 20:59:20;;;;;;;5.90;1.40;;;24.40;99.90;;;;;;1936765;74;21598;-79
2021/10/28 21:01:50;;;;;;;3.35;1.17;;;24.40;99.90;;;;;;1909375;74;21453;-79
2021/10/28 21:04:22;;;;;;;5.40;1.70;;;24.40;99.90;;;;;;1899505;75;21605;-79
2021/10/28 21:06:52;;;;;;;4.83;1.67;;;24.40;99.90;;;;;;1900130;75;21621;-79
2021/10/28 21:09:24;;;;;;;6.22;1.95;;;24.40;99.90;;;;;;1911707;74;21603;-79
2021/10/28 21:11:55;;;;;;;5.40;1.90;;;24.40;99.90;;;;;;1925541;74;21137;-79
2021/10/28 21:14:26;;;;;;;5.40;1.62;;;24.40;99.90;;;;;;1899677;75;21143;-79
2021/10/28 21:16:57;;;;;;;2.75;1.30;;;24.30;99.90;;;;;;1899510;75;21165;-79
2021/10/28 21:19:27;;;;;;;2.70;1.42;;;24.40;99.90;;;;;;1910232;74;21260;-79
2021/10/28 21:21:58;;;;;;;7.12;2.10;;;24.40;99.90;;;;;;1906108;74;21100;-80
2021/10/28 21:24:29;;;;;;;4.15;1.92;;;24.40;99.90;;;;;;1894416;74;21612;-79
2021/10/28 21:27:01;;;;;;;3.27;1.35;;;24.40;99.90;;;;;;1859408;75;21105;-79
2021/10/28 21:29:33;;;;;;;6.78;1.65;;;24.40;99.90;;;;;;1902819;73;21657;-79
2021/10/28 21:32:04;;;;;;;3.60;1.40;;;24.40;99.90;;;;;;1908132;74;21199;-78
2021/10/28 21:34:37;;;;;;;5.65;1.50;;;24.40;99.90;;;;;;1890734;75;21222;-79
2021/10/28 21:37:11;;;;;;;2.67;1.50;;;24.40;99.90;;;;;;1878355;76;21084;-80
2021/10/28 21:39:43;;;;;;;5.22;1.80;;;24.40;99.90;;;;;;1895354;75;21542;-79
2021/10/28 21:42:14;;;;;;;4.53;1.62;;;24.40;99.90;;;;;;1905390;75;21146;-79
2021/10/28 21:44:45;;;;;;;3.35;1.50;;;24.40;99.90;;;;;;1890917;75;21161;-79
2021/10/28 21:47:19;;;;;;;3.47;1.62;;;24.40;99.90;;;;;;1845462;78;21860;-79
2021/10/28 21:49:48;;;;;;;2.85;1.60;;;24.40;99.90;;;;;;1904463;74;21174;-79
2021/10/28 21:52:26;;;;;;;2.98;1.85;;;24.40;99.90;;;;;;1893519;76;21529;-79
2021/10/28 22:02:56;;;;;;;8.05;3.33;;;24.40;99.90;;;;;;1902433;75;21188;-80
2021/10/28 22:25:59;;;;;;;4.60;2.02;;;24.40;99.90;;;;;;1889683;74;21715;-79
2021/10/28 22:28:32;;;;;;;4.55;2.20;;;24.40;99.90;;;;;;1923944;74;21060;-80
2021/10/28 22:31:04;;;;;;;4.90;2.10;;;24.40;99.90;;;;;;1903353;74;21079;-80
2021/10/28 22:33:35;;;;;;;6.35;2.80;;;24.40;99.90;;;;;;1898303;75;21607;-80
2021/10/28 22:36:22;;;;;;;6.47;3.00;;;24.40;99.90;;;;;;1908092;74;21665;-80
2021/10/28 22:38:46;;;;;;;7.20;2.90;;;24.40;99.90;;;;;;1901862;75;21129;-81
2021/10/28 22:41:13;;;;;;;7.10;2.70;;;24.40;99.90;;;;;;1910098;73;21124;-79
2021/10/28 22:43:44;;;;;;;5.90;2.40;;;24.40;99.90;;;;;;1912327;74;21535;-80
2021/10/28 22:46:22;;;;;;;6.65;3.52;;;24.40;99.90;;;;;;1884615;75;21137;-80
2021/10/28 22:48:49;;;;;;;12.75;6.58;;;24.40;99.90;;;;;;1922177;74;21632;-80
2021/10/28 22:51:20;;;;;;;8.10;4.85;;;24.40;99.90;;;;;;1896233;74;21073;-79